Col Jabara, KS

2:13 PM CDT on July 28, 2017 (GMT -0500)
Col Jabara | | Change Station

Elev 1417 ft 37.75 °N, 97.22 °W | Updated 19 minutes ago

Scattered Clouds
Scattered Clouds
87 °F
Feels Like 90 °F
N
10
Wind Variable Wind from NNE
Gusts 18 mph

Today
High -- | Low -- °F
--% Chance of Precip.
Yesterday
High -- | Low -- °F
Precip. -- in
Pressure 29.94 in
Visibility 10.0 miles
Clouds Scattered Clouds 4300 ft
Scattered Clouds 5500 ft
Heat Index 90 °F
Dew Point 67 °F
Humidity 51%
Rainfall 0.00 in
Snow Depth Not available.
6:29 AM 8:40 PM
Waxing Crescent, 32% visible
METAR KAAO 281854Z AUTO 02009G16KT 10SM SCT043 SCT055 31/19 A2998 RMK AO2 SLP138 T03060194
Pressure 29.94 in
Visibility 10.0 miles
Clouds Scattered Clouds 4300 ft
Scattered Clouds 5500 ft
Heat Index 90 °F
Dew Point 67 °F
Humidity 51%
Rainfall 0.00 in
Snow Depth Not available.
6:29 AM 8:40 PM
Waxing Crescent, 32% visible
METAR KAAO 281854Z AUTO 02009G16KT 10SM SCT043 SCT055 31/19 A2998 RMK AO2 SLP138 T03060194

Get Severe Weather Alerts

Thanks for signing up!

Be on the lookout for a verification email in your inbox.

You'll start receiving the daily forecast at 6 AM.

×

10-Day Weather Forecast

Almanac

Astronomy

Jul. 28, 2017 Rise Set
Actual Time
Civil Twilight
Nautical Twilight
Astronomical Twilight
Moon
Length of Visible Light
Length of Day
Tomorrow will be .
, % of the Moon is Illuminated

Today's Extremes

State Highs State Lows

Community

WunderPhotos

Category 6

Welcome to Category 6. This is the collective home for Weather Underground's featured writeups by Dr. Jeff Masters (right), Bob Henson (left), Chris Burt, and other regular contributors.

Nearby

Air Quality

  Air Quality AQ Index Pollutant
Not available.

Snow Depth

Station Depth Elevation

Earthquake Activity

City Distance Mag. Time & Date
Minimum magnitude displayed is 2.5.

Coastal Water Temperatures

Place Temperature

Stations

Nearby Weather Stations

Station Location Temp. Windchill Dew Point Humidity Wind Precip. Elev Updated Type
                   

Watches & Warnings

There are currently no watches in effect.